sensor_id;sensor_type;location;lat;lon;timestamp;P1;durP1;ratioP1;P2;durP2;ratioP2
19816;SDS011;68323;49.394;8.434;2024-03-17T00:00:07;11.00;;;7.83;;
19816;SDS011;68323;49.394;8.434;2024-03-17T00:02:39;11.03;;;8.10;;
19816;SDS011;68323;49.394;8.434;2024-03-17T00:05:06;11.00;;;8.00;;
19816;SDS011;68323;49.394;8.434;2024-03-17T00:07:32;11.60;;;8.67;;
19816;SDS011;68323;49.394;8.434;2024-03-17T00:09:58;14.17;;;8.57;;
19816;SDS011;68323;49.394;8.434;2024-03-17T00:12:24;15.30;;;8.63;;
19816;SDS011;68323;49.394;8.434;2024-03-17T00:14:50;16.27;;;10.00;;
19816;SDS011;68323;49.394;8.434;2024-03-17T00:17:15;15.90;;;10.23;;
19816;SDS011;68323;49.394;8.434;2024-03-17T00:19:42;13.70;;;9.83;;
19816;SDS011;68323;49.394;8.434;2024-03-17T00:22:08;13.17;;;9.93;;
19816;SDS011;68323;49.394;8.434;2024-03-17T00:24:38;14.47;;;10.00;;
19816;SDS011;68323;49.394;8.434;2024-03-17T00:27:04;12.37;;;9.27;;
19816;SDS011;68323;49.394;8.434;2024-03-17T00:29:30;14.20;;;9.13;;
19816;SDS011;68323;49.394;8.434;2024-03-17T00:31:57;13.53;;;9.07;;
19816;SDS011;68323;49.394;8.434;2024-03-17T00:34:23;13.37;;;9.60;;
19816;SDS011;68323;49.394;8.434;2024-03-17T00:36:49;13.67;;;9.10;;
19816;SDS011;68323;49.394;8.434;2024-03-17T00:39:16;11.37;;;8.77;;
19816;SDS011;68323;49.394;8.434;2024-03-17T00:41:43;14.83;;;9.17;;
19816;SDS011;68323;49.394;8.434;2024-03-17T00:44:09;11.00;;;9.03;;
19816;SDS011;68323;49.394;8.434;2024-03-17T00:46:35;13.80;;;9.90;;
19816;SDS011;68323;49.394;8.434;2024-03-17T00:49:02;14.20;;;10.00;;
19816;SDS011;68323;49.394;8.434;2024-03-17T00:51:28;13.17;;;9.40;;
19816;SDS011;68323;49.394;8.434;2024-03-17T00:53:54;16.40;;;9.60;;
19816;SDS011;68323;49.394;8.434;2024-03-17T00:56:21;15.10;;;9.13;;
19816;SDS011;68323;49.394;8.434;2024-03-17T00:58:47;13.43;;;9.07;;
19816;SDS011;68323;49.394;8.434;2024-03-17T01:01:16;15.17;;;9.50;;
19816;SDS011;68323;49.394;8.434;2024-03-17T01:03:42;13.90;;;9.83;;
19816;SDS011;68323;49.394;8.434;2024-03-17T01:06:08;15.00;;;10.37;;
19816;SDS011;68323;49.394;8.434;2024-03-17T01:08:34;14.17;;;10.00;;
19816;SDS011;68323;49.394;8.434;2024-03-17T01:11:00;14.43;;;10.37;;
19816;SDS011;68323;49.394;8.434;2024-03-17T01:13:28;13.30;;;9.77;;
19816;SDS011;68323;49.394;8.434;2024-03-17T01:15:53;13.37;;;9.93;;
19816;SDS011;68323;49.394;8.434;2024-03-17T01:18:20;14.23;;;10.10;;
19816;SDS011;68323;49.394;8.434;2024-03-17T01:20:46;14.27;;;9.90;;
19816;SDS011;68323;49.394;8.434;2024-03-17T01:23:12;15.37;;;9.70;;
19816;SDS011;68323;49.394;8.434;2024-03-17T01:25:38;17.00;;;10.93;;
19816;SDS011;68323;49.394;8.434;2024-03-17T01:28:04;13.90;;;10.43;;
19816;SDS011;68323;49.394;8.434;2024-03-17T01:30:31;14.83;;;10.00;;
19816;SDS011;68323;49.394;8.434;2024-03-17T01:32:57;14.93;;;11.10;;
19816;SDS011;68323;49.394;8.434;2024-03-17T01:35:24;13.67;;;9.90;;
19816;SDS011;68323;49.394;8.434;2024-03-17T01:37:50;15.87;;;11.07;;
19816;SDS011;68323;49.394;8.434;2024-03-17T01:40:16;16.97;;;11.33;;
19816;SDS011;68323;49.394;8.434;2024-03-17T01:42:42;16.80;;;12.03;;
19816;SDS011;68323;49.394;8.434;2024-03-17T01:47:50;16.40;;;11.37;;
19816;SDS011;68323;49.394;8.434;2024-03-17T01:50:16;15.87;;;11.37;;
19816;SDS011;68323;49.394;8.434;2024-03-17T01:52:44;17.13;;;11.83;;
19816;SDS011;68323;49.394;8.434;2024-03-17T01:55:11;16.10;;;11.00;;
19816;SDS011;68323;49.394;8.434;2024-03-17T01:57:37;15.90;;;11.17;;
19816;SDS011;68323;49.394;8.434;2024-03-17T02:00:03;16.40;;;10.80;;
19816;SDS011;68323;49.394;8.434;2024-03-17T02:02:33;14.23;;;10.40;;
19816;SDS011;68323;49.394;8.434;2024-03-17T02:04:59;18.97;;;11.70;;
19816;SDS011;68323;49.394;8.434;2024-03-17T02:07:25;18.73;;;12.33;;
19816;SDS011;68323;49.394;8.434;2024-03-17T02:09:51;17.33;;;12.27;;
19816;SDS011;68323;49.394;8.434;2024-03-17T02:12:17;19.87;;;12.73;;
19816;SDS011;68323;49.394;8.434;2024-03-17T02:14:43;18.47;;;12.50;;
19816;SDS011;68323;49.394;8.434;2024-03-17T02:17:08;16.13;;;11.83;;
19816;SDS011;68323;49.394;8.434;2024-03-17T02:19:34;22.83;;;13.30;;
19816;SDS011;68323;49.394;8.434;2024-03-17T02:22:00;17.37;;;12.23;;
19816;SDS011;68323;49.394;8.434;2024-03-17T02:24:26;18.53;;;13.23;;
19816;SDS011;68323;49.394;8.434;2024-03-17T02:26:52;17.67;;;12.20;;
19816;SDS011;68323;49.394;8.434;2024-03-17T02:29:18;18.97;;;12.70;;
19816;SDS011;68323;49.394;8.434;2024-03-17T02:31:44;18.87;;;13.10;;
19816;SDS011;68323;49.394;8.434;2024-03-17T02:34:11;19.70;;;12.83;;
19816;SDS011;68323;49.394;8.434;2024-03-17T02:36:37;18.40;;;13.10;;
19816;SDS011;68323;49.394;8.434;2024-03-17T02:39:03;20.77;;;13.30;;
19816;SDS011;68323;49.394;8.434;2024-03-17T02:41:47;17.80;;;12.97;;
19816;SDS011;68323;49.394;8.434;2024-03-17T02:44:14;19.50;;;13.00;;
19816;SDS011;68323;49.394;8.434;2024-03-17T02:46:40;17.63;;;12.57;;
19816;SDS011;68323;49.394;8.434;2024-03-17T02:49:06;20.43;;;13.27;;
19816;SDS011;68323;49.394;8.434;2024-03-17T02:51:33;18.37;;;13.10;;
19816;SDS011;68323;49.394;8.434;2024-03-17T02:53:59;18.70;;;12.67;;
19816;SDS011;68323;49.394;8.434;2024-03-17T02:56:25;22.50;;;13.43;;
19816;SDS011;68323;49.394;8.434;2024-03-17T02:58:51;20.73;;;13.70;;
19816;SDS011;68323;49.394;8.434;2024-03-17T03:01:17;21.23;;;13.50;;
19816;SDS011;68323;49.394;8.434;2024-03-17T03:03:44;21.90;;;12.90;;
19816;SDS011;68323;49.394;8.434;2024-03-17T03:06:10;24.60;;;13.93;;
19816;SDS011;68323;49.394;8.434;2024-03-17T03:08:38;21.37;;;13.43;;
19816;SDS011;68323;49.394;8.434;2024-03-17T03:11:06;21.53;;;12.17;;
19816;SDS011;68323;49.394;8.434;2024-03-17T03:13:32;25.73;;;14.33;;
19816;SDS011;68323;49.394;8.434;2024-03-17T03:15:58;20.97;;;12.97;;
19816;SDS011;68323;49.394;8.434;2024-03-17T03:18:24;19.20;;;12.17;;
19816;SDS011;68323;49.394;8.434;2024-03-17T03:20:51;19.00;;;12.17;;
19816;SDS011;68323;49.394;8.434;2024-03-17T03:23:17;17.63;;;10.97;;
19816;SDS011;68323;49.394;8.434;2024-03-17T03:25:44;17.87;;;11.47;;
19816;SDS011;68323;49.394;8.434;2024-03-17T03:28:10;19.10;;;11.60;;
19816;SDS011;68323;49.394;8.434;2024-03-17T03:30:36;16.53;;;11.17;;
19816;SDS011;68323;49.394;8.434;2024-03-17T03:33:02;18.27;;;11.10;;
19816;SDS011;68323;49.394;8.434;2024-03-17T03:35:29;16.37;;;10.90;;
19816;SDS011;68323;49.394;8.434;2024-03-17T03:37:55;15.40;;;10.50;;
19816;SDS011;68323;49.394;8.434;2024-03-17T03:40:21;17.43;;;11.43;;
19816;SDS011;68323;49.394;8.434;2024-03-17T03:42:47;17.97;;;11.30;;
19816;SDS011;68323;49.394;8.434;2024-03-17T03:45:13;17.87;;;10.33;;
19816;SDS011;68323;49.394;8.434;2024-03-17T03:47:40;15.03;;;9.90;;
19816;SDS011;68323;49.394;8.434;2024-03-17T03:50:07;15.43;;;10.20;;
19816;SDS011;68323;49.394;8.434;2024-03-17T03:52:37;16.57;;;10.20;;
19816;SDS011;68323;49.394;8.434;2024-03-17T03:55:03;16.07;;;10.53;;
19816;SDS011;68323;49.394;8.434;2024-03-17T03:57:32;17.83;;;10.70;;
19816;SDS011;68323;49.394;8.434;2024-03-17T03:59:59;15.67;;;10.60;;
19816;SDS011;68323;49.394;8.434;2024-03-17T04:02:26;15.63;;;11.17;;
19816;SDS011;68323;49.394;8.434;2024-03-17T04:04:56;18.90;;;12.83;;
19816;SDS011;68323;49.394;8.434;2024-03-17T04:07:22;21.47;;;12.87;;
19816;SDS011;68323;49.394;8.434;2024-03-17T04:09:48;18.57;;;12.23;;
19816;SDS011;68323;49.394;8.434;2024-03-17T04:12:14;18.80;;;12.00;;
19816;SDS011;68323;49.394;8.434;2024-03-17T04:14:40;19.30;;;12.40;;
19816;SDS011;68323;49.394;8.434;2024-03-17T04:17:06;19.20;;;11.57;;
19816;SDS011;68323;49.394;8.434;2024-03-17T04:19:32;18.00;;;12.30;;
19816;SDS011;68323;49.394;8.434;2024-03-17T04:21:58;19.50;;;12.93;;
19816;SDS011;68323;49.394;8.434;2024-03-17T04:24:23;25.70;;;13.70;;
19816;SDS011;68323;49.394;8.434;2024-03-17T04:26:49;20.13;;;12.13;;
19816;SDS011;68323;49.394;8.434;2024-03-17T04:29:15;21.27;;;12.60;;
19816;SDS011;68323;49.394;8.434;2024-03-17T04:31:41;18.83;;;13.23;;
19816;SDS011;68323;49.394;8.434;2024-03-17T04:34:08;19.43;;;13.33;;
19816;SDS011;68323;49.394;8.434;2024-03-17T04:36:34;19.27;;;13.00;;
19816;SDS011;68323;49.394;8.434;2024-03-17T04:39:00;19.93;;;13.00;;
19816;SDS011;68323;49.394;8.434;2024-03-17T04:41:26;19.13;;;12.03;;
19816;SDS011;68323;49.394;8.434;2024-03-17T04:43:52;16.77;;;10.73;;
19816;SDS011;68323;49.394;8.434;2024-03-17T04:46:18;15.97;;;11.17;;
19816;SDS011;68323;49.394;8.434;2024-03-17T04:48:44;17.97;;;11.40;;
19816;SDS011;68323;49.394;8.434;2024-03-17T04:51:14;15.93;;;11.53;;
19816;SDS011;68323;49.394;8.434;2024-03-17T04:53:41;19.73;;;12.23;;
19816;SDS011;68323;49.394;8.434;2024-03-17T04:56:06;19.90;;;12.80;;
19816;SDS011;68323;49.394;8.434;2024-03-17T04:58:32;22.27;;;12.93;;
19816;SDS011;68323;49.394;8.434;2024-03-17T05:01:05;20.03;;;13.23;;
19816;SDS011;68323;49.394;8.434;2024-03-17T05:03:31;17.83;;;12.47;;
19816;SDS011;68323;49.394;8.434;2024-03-17T05:06:01;22.97;;;12.53;;
19816;SDS011;68323;49.394;8.434;2024-03-17T05:08:27;18.13;;;12.70;;
19816;SDS011;68323;49.394;8.434;2024-03-17T05:10:57;21.73;;;13.87;;
19816;SDS011;68323;49.394;8.434;2024-03-17T05:13:23;24.93;;;15.00;;
19816;SDS011;68323;49.394;8.434;2024-03-17T05:15:49;23.67;;;14.40;;
19816;SDS011;68323;49.394;8.434;2024-03-17T05:18:15;19.07;;;13.30;;
19816;SDS011;68323;49.394;8.434;2024-03-17T05:20:41;19.57;;;12.87;;
19816;SDS011;68323;49.394;8.434;2024-03-17T05:23:07;21.20;;;12.53;;
19816;SDS011;68323;49.394;8.434;2024-03-17T05:25:33;20.57;;;12.60;;
19816;SDS011;68323;49.394;8.434;2024-03-17T05:28:02;17.10;;;12.47;;
19816;SDS011;68323;49.394;8.434;2024-03-17T05:30:28;17.93;;;12.87;;
19816;SDS011;68323;49.394;8.434;2024-03-17T05:32:55;21.30;;;12.40;;
19816;SDS011;68323;49.394;8.434;2024-03-17T05:35:21;20.57;;;13.53;;
19816;SDS011;68323;49.394;8.434;2024-03-17T05:37:48;23.07;;;14.30;;
19816;SDS011;68323;49.394;8.434;2024-03-17T05:40:14;23.20;;;14.37;;
19816;SDS011;68323;49.394;8.434;2024-03-17T05:42:43;21.73;;;13.67;;
19816;SDS011;68323;49.394;8.434;2024-03-17T05:45:09;17.83;;;12.27;;
19816;SDS011;68323;49.394;8.434;2024-03-17T05:47:38;18.00;;;12.00;;
19816;SDS011;68323;49.394;8.434;2024-03-17T05:50:06;21.47;;;13.23;;
19816;SDS011;68323;49.394;8.434;2024-03-17T05:52:32;20.43;;;13.53;;
19816;SDS011;68323;49.394;8.434;2024-03-17T05:54:59;23.03;;;14.20;;
19816;SDS011;68323;49.394;8.434;2024-03-17T05:57:25;23.83;;;15.10;;
19816;SDS011;68323;49.394;8.434;2024-03-17T05:59:51;34.90;;;16.80;;
19816;SDS011;68323;49.394;8.434;2024-03-17T06:02:17;28.97;;;17.73;;
19816;SDS011;68323;49.394;8.434;2024-03-17T06:04:44;27.93;;;17.33;;
19816;SDS011;68323;49.394;8.434;2024-03-17T06:07:10;29.63;;;17.47;;
19816;SDS011;68323;49.394;8.434;2024-03-17T06:09:35;26.37;;;17.53;;
19816;SDS011;68323;49.394;8.434;2024-03-17T06:12:01;31.57;;;17.97;;
19816;SDS011;68323;49.394;8.434;2024-03-17T06:14:27;28.83;;;18.50;;
19816;SDS011;68323;49.394;8.434;2024-03-17T06:16:53;26.90;;;18.10;;
19816;SDS011;68323;49.394;8.434;2024-03-17T06:19:19;25.40;;;16.13;;
19816;SDS011;68323;49.394;8.434;2024-03-17T06:21:45;20.23;;;14.53;;
19816;SDS011;68323;49.394;8.434;2024-03-17T06:24:11;16.80;;;12.13;;
19816;SDS011;68323;49.394;8.434;2024-03-17T06:26:37;17.13;;;11.80;;
19816;SDS011;68323;49.394;8.434;2024-03-17T06:29:03;15.50;;;11.27;;
19816;SDS011;68323;49.394;8.434;2024-03-17T06:31:29;21.93;;;13.60;;
19816;SDS011;68323;49.394;8.434;2024-03-17T06:33:56;19.30;;;13.00;;
19816;SDS011;68323;49.394;8.434;2024-03-17T06:36:23;15.87;;;10.97;;
19816;SDS011;68323;49.394;8.434;2024-03-17T06:38:49;13.13;;;8.67;;
19816;SDS011;68323;49.394;8.434;2024-03-17T06:41:16;9.23;;;6.60;;
19816;SDS011;68323;49.394;8.434;2024-03-17T06:43:42;8.90;;;5.40;;
19816;SDS011;68323;49.394;8.434;2024-03-17T06:46:08;11.73;;;5.30;;
19816;SDS011;68323;49.394;8.434;2024-03-17T06:48:34;6.43;;;5.33;;
19816;SDS011;68323;49.394;8.434;2024-03-17T06:51:00;6.17;;;5.33;;
19816;SDS011;68323;49.394;8.434;2024-03-17T06:53:26;7.53;;;4.93;;
19816;SDS011;68323;49.394;8.434;2024-03-17T06:55:54;8.03;;;5.10;;
19816;SDS011;68323;49.394;8.434;2024-03-17T06:58:21;6.97;;;5.30;;
19816;SDS011;68323;49.394;8.434;2024-03-17T07:00:57;8.97;;;5.80;;
19816;SDS011;68323;49.394;8.434;2024-03-17T07:03:27;6.67;;;5.80;;
19816;SDS011;68323;49.394;8.434;2024-03-17T07:05:54;8.50;;;5.73;;
19816;SDS011;68323;49.394;8.434;2024-03-17T07:08:21;6.03;;;5.40;;
19816;SDS011;68323;49.394;8.434;2024-03-17T07:13:32;7.43;;;6.20;;
19816;SDS011;68323;49.394;8.434;2024-03-17T07:15:59;6.47;;;5.60;;
19816;SDS011;68323;49.394;8.434;2024-03-17T07:18:25;7.90;;;5.70;;
19816;SDS011;68323;49.394;8.434;2024-03-17T07:20:52;7.77;;;6.07;;
19816;SDS011;68323;49.394;8.434;2024-03-17T07:23:18;6.27;;;5.50;;
19816;SDS011;68323;49.394;8.434;2024-03-17T07:25:57;7.20;;;5.63;;
19816;SDS011;68323;49.394;8.434;2024-03-17T07:28:23;7.93;;;5.20;;
19816;SDS011;68323;49.394;8.434;2024-03-17T07:30:50;6.27;;;5.23;;
19816;SDS011;68323;49.394;8.434;2024-03-17T07:33:16;7.90;;;5.20;;
19816;SDS011;68323;49.394;8.434;2024-03-17T07:35:58;5.30;;;4.80;;
19816;SDS011;68323;49.394;8.434;2024-03-17T07:38:28;5.78;;;4.78;;
19816;SDS011;68323;49.394;8.434;2024-03-17T07:41:05;7.72;;;5.28;;
19816;SDS011;68323;49.394;8.434;2024-03-17T07:43:31;6.85;;;5.40;;
19816;SDS011;68323;49.394;8.434;2024-03-17T07:48:24;8.07;;;5.13;;
19816;SDS011;68323;49.394;8.434;2024-03-17T07:50:53;7.05;;;5.15;;
19816;SDS011;68323;49.394;8.434;2024-03-17T07:53:20;6.10;;;5.20;;
19816;SDS011;68323;49.394;8.434;2024-03-17T07:55:46;6.15;;;4.53;;
19816;SDS011;68323;49.394;8.434;2024-03-17T07:58:11;7.40;;;5.18;;
19816;SDS011;68323;49.394;8.434;2024-03-17T08:00:37;6.53;;;5.15;;
19816;SDS011;68323;49.394;8.434;2024-03-17T08:03:03;7.77;;;5.40;;
19816;SDS011;68323;49.394;8.434;2024-03-17T08:05:29;8.13;;;5.50;;
19816;SDS011;68323;49.394;8.434;2024-03-17T08:07:55;7.13;;;4.90;;
19816;SDS011;68323;49.394;8.434;2024-03-17T08:10:21;6.83;;;5.47;;
19816;SDS011;68323;49.394;8.434;2024-03-17T08:12:47;5.67;;;5.07;;
19816;SDS011;68323;49.394;8.434;2024-03-17T08:15:13;6.73;;;5.50;;
19816;SDS011;68323;49.394;8.434;2024-03-17T08:17:39;5.07;;;4.57;;
19816;SDS011;68323;49.394;8.434;2024-03-17T08:20:05;6.67;;;4.53;;
19816;SDS011;68323;49.394;8.434;2024-03-17T08:22:31;6.33;;;5.00;;
19816;SDS011;68323;49.394;8.434;2024-03-17T08:24:57;6.03;;;5.13;;
19816;SDS011;68323;49.394;8.434;2024-03-17T08:27:23;8.70;;;4.87;;
19816;SDS011;68323;49.394;8.434;2024-03-17T08:29:49;8.27;;;5.10;;
19816;SDS011;68323;49.394;8.434;2024-03-17T08:32:15;6.90;;;4.70;;
19816;SDS011;68323;49.394;8.434;2024-03-17T08:34:45;8.67;;;5.10;;
19816;SDS011;68323;49.394;8.434;2024-03-17T08:37:11;8.43;;;5.87;;
19816;SDS011;68323;49.394;8.434;2024-03-17T08:39:37;8.63;;;5.20;;
19816;SDS011;68323;49.394;8.434;2024-03-17T08:42:03;7.17;;;5.17;;
19816;SDS011;68323;49.394;8.434;2024-03-17T08:44:29;10.47;;;5.20;;
19816;SDS011;68323;49.394;8.434;2024-03-17T08:46:55;10.33;;;5.40;;
19816;SDS011;68323;49.394;8.434;2024-03-17T08:49:22;9.20;;;5.40;;
19816;SDS011;68323;49.394;8.434;2024-03-17T08:51:48;9.10;;;5.63;;
19816;SDS011;68323;49.394;8.434;2024-03-17T08:54:14;7.73;;;5.57;;
19816;SDS011;68323;49.394;8.434;2024-03-17T08:56:40;7.93;;;5.87;;
19816;SDS011;68323;49.394;8.434;2024-03-17T08:59:06;8.50;;;5.90;;
19816;SDS011;68323;49.394;8.434;2024-03-17T09:01:32;7.83;;;5.97;;
19816;SDS011;68323;49.394;8.434;2024-03-17T09:03:58;7.27;;;5.60;;
19816;SDS011;68323;49.394;8.434;2024-03-17T09:06:26;6.70;;;5.57;;
19816;SDS011;68323;49.394;8.434;2024-03-17T09:08:54;7.90;;;5.50;;
19816;SDS011;68323;49.394;8.434;2024-03-17T09:11:20;7.80;;;5.40;;
19816;SDS011;68323;49.394;8.434;2024-03-17T09:13:52;6.83;;;5.13;;
19816;SDS011;68323;49.394;8.434;2024-03-17T09:16:19;9.23;;;6.10;;
19816;SDS011;68323;49.394;8.434;2024-03-17T09:18:47;8.27;;;6.17;;
19816;SDS011;68323;49.394;8.434;2024-03-17T09:21:16;8.20;;;6.00;;
19816;SDS011;68323;49.394;8.434;2024-03-17T09:23:43;7.20;;;5.83;;
19816;SDS011;68323;49.394;8.434;2024-03-17T09:26:09;8.03;;;5.77;;
19816;SDS011;68323;49.394;8.434;2024-03-17T09:28:41;8.30;;;5.80;;
19816;SDS011;68323;49.394;8.434;2024-03-17T09:31:07;7.47;;;5.67;;
19816;SDS011;68323;49.394;8.434;2024-03-17T09:33:33;8.23;;;5.60;;
19816;SDS011;68323;49.394;8.434;2024-03-17T09:36:00;9.13;;;6.20;;
19816;SDS011;68323;49.394;8.434;2024-03-17T09:38:30;9.60;;;6.17;;
19816;SDS011;68323;49.394;8.434;2024-03-17T09:40:56;7.33;;;5.97;;
19816;SDS011;68323;49.394;8.434;2024-03-17T09:43:28;11.20;;;8.37;;
19816;SDS011;68323;49.394;8.434;2024-03-17T09:45:55;10.67;;;8.63;;
19816;SDS011;68323;49.394;8.434;2024-03-17T09:48:23;8.93;;;6.20;;
19816;SDS011;68323;49.394;8.434;2024-03-17T09:50:50;6.90;;;5.77;;
19816;SDS011;68323;49.394;8.434;2024-03-17T09:53:17;7.87;;;6.23;;
19816;SDS011;68323;49.394;8.434;2024-03-17T09:55:45;8.20;;;5.80;;
19816;SDS011;68323;49.394;8.434;2024-03-17T09:58:15;8.60;;;5.97;;
19816;SDS011;68323;49.394;8.434;2024-03-17T10:00:44;8.30;;;5.70;;
19816;SDS011;68323;49.394;8.434;2024-03-17T10:03:11;9.60;;;5.10;;
19816;SDS011;68323;49.394;8.434;2024-03-17T10:05:37;7.30;;;5.40;;
19816;SDS011;68323;49.394;8.434;2024-03-17T10:08:03;8.00;;;5.78;;
19816;SDS011;68323;49.394;8.434;2024-03-17T10:10:29;6.55;;;5.50;;
19816;SDS011;68323;49.394;8.434;2024-03-17T10:12:55;8.73;;;5.70;;
19816;SDS011;68323;49.394;8.434;2024-03-17T10:15:21;8.35;;;5.70;;
19816;SDS011;68323;49.394;8.434;2024-03-17T10:17:48;9.25;;;5.80;;
19816;SDS011;68323;49.394;8.434;2024-03-17T10:23:03;7.03;;;5.40;;
19816;SDS011;68323;49.394;8.434;2024-03-17T10:25:27;8.05;;;5.32;;
19816;SDS011;68323;49.394;8.434;2024-03-17T10:27:53;5.95;;;4.90;;
19816;SDS011;68323;49.394;8.434;2024-03-17T10:30:20;7.22;;;5.28;;
19816;SDS011;68323;49.394;8.434;2024-03-17T10:32:51;7.28;;;5.50;;
19816;SDS011;68323;49.394;8.434;2024-03-17T10:35:28;7.40;;;5.78;;
19816;SDS011;68323;49.394;8.434;2024-03-17T10:38:03;7.88;;;5.57;;
19816;SDS011;68323;49.394;8.434;2024-03-17T10:40:30;7.05;;;5.97;;
19816;SDS011;68323;49.394;8.434;2024-03-17T10:42:57;7.25;;;5.78;;
19816;SDS011;68323;49.394;8.434;2024-03-17T10:45:23;6.97;;;5.72;;
19816;SDS011;68323;49.394;8.434;2024-03-17T10:47:50;7.60;;;5.47;;
19816;SDS011;68323;49.394;8.434;2024-03-17T10:50:20;11.57;;;7.72;;
19816;SDS011;68323;49.394;8.434;2024-03-17T10:52:47;6.32;;;5.72;;
19816;SDS011;68323;49.394;8.434;2024-03-17T10:55:20;8.05;;;5.88;;
19816;SDS011;68323;49.394;8.434;2024-03-17T10:57:47;8.95;;;6.28;;
19816;SDS011;68323;49.394;8.434;2024-03-17T11:00:13;9.82;;;6.75;;
19816;SDS011;68323;49.394;8.434;2024-03-17T11:02:42;5.93;;;5.33;;
19816;SDS011;68323;49.394;8.434;2024-03-17T11:05:30;8.60;;;6.07;;
19816;SDS011;68323;49.394;8.434;2024-03-17T11:07:58;7.03;;;5.67;;
19816;SDS011;68323;49.394;8.434;2024-03-17T11:10:28;6.67;;;5.40;;
19816;SDS011;68323;49.394;8.434;2024-03-17T11:12:58;6.87;;;5.70;;
19816;SDS011;68323;49.394;8.434;2024-03-17T11:17:54;8.53;;;5.50;;
19816;SDS011;68323;49.394;8.434;2024-03-17T11:20:24;8.43;;;5.83;;
19816;SDS011;68323;49.394;8.434;2024-03-17T11:22:51;10.53;;;5.87;;
19816;SDS011;68323;49.394;8.434;2024-03-17T11:28:08;10.47;;;6.07;;
19816;SDS011;68323;49.394;8.434;2024-03-17T11:36:29;6.87;;;6.17;;
19816;SDS011;68323;49.394;8.434;2024-03-17T11:38:59;6.80;;;5.43;;
19816;SDS011;68323;49.394;8.434;2024-03-17T11:46:45;9.73;;;5.30;;
19816;SDS011;68323;49.394;8.434;2024-03-17T11:49:25;6.73;;;5.23;;
19816;SDS011;68323;49.394;8.434;2024-03-17T11:51:51;7.00;;;5.30;;
19816;SDS011;68323;49.394;8.434;2024-03-17T11:54:18;6.73;;;4.90;;
19816;SDS011;68323;49.394;8.434;2024-03-17T11:56:48;9.60;;;5.13;;
19816;SDS011;68323;49.394;8.434;2024-03-17T11:59:14;6.03;;;4.60;;
19816;SDS011;68323;49.394;8.434;2024-03-17T12:01:43;6.17;;;4.80;;
19816;SDS011;68323;49.394;8.434;2024-03-17T12:04:09;8.47;;;4.90;;
19816;SDS011;68323;49.394;8.434;2024-03-17T12:06:35;8.77;;;4.87;;
19816;SDS011;68323;49.394;8.434;2024-03-17T12:09:34;8.90;;;5.10;;
19816;SDS011;68323;49.394;8.434;2024-03-17T12:12:01;6.40;;;4.90;;
19816;SDS011;68323;49.394;8.434;2024-03-17T12:14:28;6.93;;;4.97;;
19816;SDS011;68323;49.394;8.434;2024-03-17T12:16:59;6.80;;;4.90;;
19816;SDS011;68323;49.394;8.434;2024-03-17T12:19:26;6.60;;;4.97;;
19816;SDS011;68323;49.394;8.434;2024-03-17T12:21:53;8.33;;;5.07;;
19816;SDS011;68323;49.394;8.434;2024-03-17T12:24:22;6.70;;;5.03;;
19816;SDS011;68323;49.394;8.434;2024-03-17T12:26:49;6.87;;;4.87;;
19816;SDS011;68323;49.394;8.434;2024-03-17T12:29:32;6.17;;;4.70;;
19816;SDS011;68323;49.394;8.434;2024-03-17T12:31:59;7.20;;;5.07;;
19816;SDS011;68323;49.394;8.434;2024-03-17T12:34:29;7.33;;;5.13;;
19816;SDS011;68323;49.394;8.434;2024-03-17T12:36:55;6.57;;;5.70;;
19816;SDS011;68323;49.394;8.434;2024-03-17T12:39:23;7.57;;;5.23;;
19816;SDS011;68323;49.394;8.434;2024-03-17T12:44:28;7.43;;;5.23;;
19816;SDS011;68323;49.394;8.434;2024-03-17T12:46:55;7.67;;;5.93;;
19816;SDS011;68323;49.394;8.434;2024-03-17T12:49:21;7.63;;;5.70;;
19816;SDS011;68323;49.394;8.434;2024-03-17T12:51:50;7.83;;;5.30;;
19816;SDS011;68323;49.394;8.434;2024-03-17T12:54:17;10.43;;;5.50;;
19816;SDS011;68323;49.394;8.434;2024-03-17T12:56:44;6.90;;;5.40;;
19816;SDS011;68323;49.394;8.434;2024-03-17T12:59:39;7.60;;;5.10;;
19816;SDS011;68323;49.394;8.434;2024-03-17T13:02:23;8.53;;;5.47;;
19816;SDS011;68323;49.394;8.434;2024-03-17T13:05:14;6.73;;;5.40;;
19816;SDS011;68323;49.394;8.434;2024-03-17T13:07:38;6.47;;;5.10;;
19816;SDS011;68323;49.394;8.434;2024-03-17T13:10:04;8.80;;;5.27;;
19816;SDS011;68323;49.394;8.434;2024-03-17T13:12:32;7.07;;;4.87;;
19816;SDS011;68323;49.394;8.434;2024-03-17T13:14:58;8.90;;;5.97;;
19816;SDS011;68323;49.394;8.434;2024-03-17T13:17:24;11.10;;;5.40;;
19816;SDS011;68323;49.394;8.434;2024-03-17T13:19:50;9.90;;;5.50;;
19816;SDS011;68323;49.394;8.434;2024-03-17T13:22:16;8.10;;;5.23;;
19816;SDS011;68323;49.394;8.434;2024-03-17T13:24:42;7.03;;;5.60;;
19816;SDS011;68323;49.394;8.434;2024-03-17T13:27:08;7.60;;;5.23;;
19816;SDS011;68323;49.394;8.434;2024-03-17T13:29:34;7.17;;;5.60;;
19816;SDS011;68323;49.394;8.434;2024-03-17T13:32:03;8.63;;;5.77;;
19816;SDS011;68323;49.394;8.434;2024-03-17T13:34:30;8.20;;;5.60;;
19816;SDS011;68323;49.394;8.434;2024-03-17T13:36:56;9.77;;;5.47;;
19816;SDS011;68323;49.394;8.434;2024-03-17T13:39:22;6.90;;;5.07;;
19816;SDS011;68323;49.394;8.434;2024-03-17T13:41:49;8.43;;;5.20;;
19816;SDS011;68323;49.394;8.434;2024-03-17T13:44:17;5.77;;;4.43;;
19816;SDS011;68323;49.394;8.434;2024-03-17T13:46:43;7.80;;;5.13;;
19816;SDS011;68323;49.394;8.434;2024-03-17T13:49:10;6.30;;;4.90;;
19816;SDS011;68323;49.394;8.434;2024-03-17T13:51:36;8.60;;;5.27;;
19816;SDS011;68323;49.394;8.434;2024-03-17T13:54:02;6.07;;;5.20;;
19816;SDS011;68323;49.394;8.434;2024-03-17T13:56:28;7.00;;;5.17;;
19816;SDS011;68323;49.394;8.434;2024-03-17T13:58:54;8.37;;;5.17;;
19816;SDS011;68323;49.394;8.434;2024-03-17T14:01:20;8.73;;;5.03;;
19816;SDS011;68323;49.394;8.434;2024-03-17T14:03:46;8.63;;;4.60;;
19816;SDS011;68323;49.394;8.434;2024-03-17T14:06:12;5.37;;;4.10;;
19816;SDS011;68323;49.394;8.434;2024-03-17T14:08:38;7.47;;;4.80;;
19816;SDS011;68323;49.394;8.434;2024-03-17T14:11:04;8.90;;;4.90;;
19816;SDS011;68323;49.394;8.434;2024-03-17T14:13:30;6.47;;;4.50;;
19816;SDS011;68323;49.394;8.434;2024-03-17T14:15:56;6.67;;;4.60;;
19816;SDS011;68323;49.394;8.434;2024-03-17T14:18:22;7.63;;;4.87;;
19816;SDS011;68323;49.394;8.434;2024-03-17T14:20:48;6.50;;;5.37;;
19816;SDS011;68323;49.394;8.434;2024-03-17T14:23:15;6.93;;;5.00;;
19816;SDS011;68323;49.394;8.434;2024-03-17T14:25:41;7.60;;;4.83;;
19816;SDS011;68323;49.394;8.434;2024-03-17T14:28:07;7.17;;;4.53;;
19816;SDS011;68323;49.394;8.434;2024-03-17T14:30:33;7.37;;;4.30;;
19816;SDS011;68323;49.394;8.434;2024-03-17T14:32:59;6.37;;;4.70;;
19816;SDS011;68323;49.394;8.434;2024-03-17T14:35:25;7.13;;;4.83;;
19816;SDS011;68323;49.394;8.434;2024-03-17T14:37:52;6.17;;;4.50;;
19816;SDS011;68323;49.394;8.434;2024-03-17T14:40:19;4.83;;;3.40;;
19816;SDS011;68323;49.394;8.434;2024-03-17T14:42:46;6.67;;;4.10;;
19816;SDS011;68323;49.394;8.434;2024-03-17T14:45:12;6.73;;;4.17;;
19816;SDS011;68323;49.394;8.434;2024-03-17T14:47:38;6.17;;;3.73;;
19816;SDS011;68323;49.394;8.434;2024-03-17T14:50:04;6.30;;;4.20;;
19816;SDS011;68323;49.394;8.434;2024-03-17T14:52:30;5.40;;;3.80;;
19816;SDS011;68323;49.394;8.434;2024-03-17T14:54:57;5.53;;;4.00;;
19816;SDS011;68323;49.394;8.434;2024-03-17T14:57:23;8.30;;;4.07;;
19816;SDS011;68323;49.394;8.434;2024-03-17T14:59:49;6.17;;;3.63;;
19816;SDS011;68323;49.394;8.434;2024-03-17T15:02:15;5.17;;;3.97;;
19816;SDS011;68323;49.394;8.434;2024-03-17T15:04:41;6.43;;;3.97;;